Time;durP1;ratioP1;P1;durP2;ratioP2;P2;SDS_P1;SDS_P2;PMS_P1;PMS_P2;Temp;Humidity;BMP_temperature;BMP_pressure;BME280_temperature;BME280_humidity;BME280_pressure;Samples;Min_cycle;Max_cycle;Signal;HPM_P1;HPM_P2
2021/07/12 00:32:02;;;;;;;8.10;6.55;;;;;;;18.37;75.45;98586.86;262490;1089;22803;-73
2021/07/12 00:39:06;;;;;;;7.40;6.70;;;;;;;18.35;75.08;98575.58;262321;1090;26255;-71
2021/07/12 00:46:07;;;;;;;7.25;5.90;;;;;;;18.41;75.57;98579.61;262114;1088;26239;-72
2021/07/12 01:00:11;;;;;;;;;;;;;;;;;;;;;
2021/07/12 01:07:24;;;;;;;6.80;6.05;;;;;;;18.54;75.05;98592.00;262175;1089;22873;-72
2021/07/12 01:21:46;;;;;;;6.30;5.35;;;;;;;18.37;74.99;98592.28;262041;1090;26254;-73
2021/07/12 01:42:51;;;;;;;8.15;7.00;;;;;;;18.15;75.37;98569.22;262494;1090;22779;-72
2021/07/12 01:50:18;;;;;;;8.20;6.35;;;;;;;18.01;75.51;98564.17;262387;1090;22941;-72
2021/07/12 01:57:23;;;;;;;8.55;7.20;;;;;;;17.95;75.79;98572.53;262376;1090;22793;-71
2021/07/12 02:04:14;;;;;;;;;;;;;;;;;;;;;
2021/07/12 02:11:20;;;;;;;8.23;6.53;;;;;;;18.15;76.28;98582.77;262511;1089;22771;-73
2021/07/12 02:18:22;;;;;;;;;;;;;;;;;;;;;
2021/07/12 02:32:38;;;;;;;10.75;6.65;;;;;;;18.31;76.30;98580.89;262190;1090;22778;-73
2021/07/12 02:39:48;;;;;;;7.85;6.65;;;;;;;18.33;75.98;98573.22;262748;1088;22940;-76
2021/07/12 02:46:53;;;;;;;8.40;6.75;;;;;;;18.38;76.19;98572.95;262302;1090;25868;-75
2021/07/12 03:01:00;;;;;;;8.85;7.85;;;;;;;18.63;76.05;98570.94;262628;1090;22924;-73
2021/07/12 03:08:11;;;;;;;12.70;7.80;;;;;;;18.58;75.89;98595.60;262329;1089;26586;-73
2021/07/12 03:15:12;;;;;;;;;;;;;;;;;;;;;
2021/07/12 03:43:27;;;;;;;;;;;;;;;;;;;;;
2021/07/12 04:04:28;;;;;;;;;;;;;;;;;;;;;
2021/07/12 04:17:58;;;;;;;;;;;;;;;;;;;;;
2021/07/12 04:24:46;;;;;;;;;;;;;;;;;;;;;
2021/07/12 04:31:42;;;;;;;16.40;13.13;;;;;;;19.48;77.79;98588.96;262591;1088;22821;-73
2021/07/12 04:38:10;;;;;;;;;;;;;;;;;;;;;
2021/07/12 04:44:43;;;;;;;14.73;13.13;;;;;;;19.48;78.62;98595.17;262697;1090;25980;-72
2021/07/12 04:57:40;;;;;;;21.07;17.40;;;;;;;19.79;79.20;98598.20;262504;1090;22772;-73
2021/07/12 05:23:52;;;;;;;;;;;;;;;;;;;;;
2021/07/12 05:30:22;;;;;;;;;;;;;;;;;;;;;
2021/07/12 05:36:49;;;;;;;10.33;8.20;;;;;;;20.83;75.52;98605.01;262532;1089;22778;-73
2021/07/12 05:42:50;;;;;;;8.40;7.50;;;;;;;20.78;74.83;98606.10;262759;1089;23011;-74
2021/07/12 05:48:48;;;;;;;7.85;7.13;;;;;;;20.83;75.15;98602.29;262508;1089;22845;-73
2021/07/12 05:53:58;;;;;;;18.83;9.10;;;;;;;20.88;74.62;98598.50;263073;1090;22859;-72
2021/07/12 05:59:43;;;;;;;10.10;7.68;;;;;;;20.93;74.05;98598.99;264653;1088;23587;-71
2021/07/12 06:05:28;;;;;;;8.53;7.60;;;;;;;20.88;73.46;98598.50;263297;1089;22780;-72
2021/07/12 06:31:58;;;;;;;8.20;7.40;;;;;;;20.69;75.09;98619.14;263209;1089;22776;-73
2021/07/12 06:59:25;;;;;;;12.00;9.40;;;;;;;19.99;76.51;98627.04;263020;1090;22757;-73
2021/07/12 07:06:30;;;;;;;10.73;9.73;;;;;;;20.01;77.22;98626.68;262382;1090;22814;-72
2021/07/12 07:13:01;;;;;;;10.63;9.53;;;;;;;20.03;77.05;98615.45;263164;1090;22845;-73
2021/07/12 07:18:29;;;;;;;9.97;8.93;;;;;;;19.99;77.22;98623.52;263652;1090;22779;-73
2021/07/12 07:23:56;;;;;;;9.85;7.60;;;;;;;19.93;77.24;98633.88;263030;1090;24317;-73
2021/07/12 07:29:43;;;;;;;;;;;;;;;19.80;77.78;98643.30;263015;1088;22807;-73
2021/07/12 07:36:10;;;;;;;7.43;6.73;;;;;;;19.65;77.17;98653.00;262794;1088;21469;-73
2021/07/12 07:42:18;;;;;;;9.63;7.30;;;;;;;19.52;77.39;98655.03;262935;1088;22779;-74
2021/07/12 07:48:14;;;;;;;7.30;6.60;;;;;;;19.49;78.53;98637.50;263140;1089;22786;-75
2021/07/12 08:00:04;;;;;;;;;;;;;;;;;;;;;
2021/07/12 08:20:13;;;;;;;5.70;5.10;;;;;;;18.42;79.58;98608.31;263635;1089;22761;-77
2021/07/12 08:27:33;;;;;;;;;;;;;;;;;;;;;
2021/07/12 08:47:51;;;;;;;5.23;4.73;;;;;;;19.54;81.59;98644.59;262827;1090;22800;-77
2021/07/12 08:54:44;;;;;;;6.40;5.33;;;;;;;20.21;80.86;98635.64;263043;1089;22930;-75
2021/07/12 09:08:34;;;;;;;6.25;5.70;;;;;;;21.29;77.93;98645.89;263106;1089;22887;-77
2021/07/12 09:36:57;;;;;;;;;;;;;;;;;;;;;
2021/07/12 09:43:12;;;;;;;;;;;;;;;;;;;;;
2021/07/12 09:49:37;;;;;;;;;;;;;;;;;;;;;
2021/07/12 09:56:35;;;;;;;;;;;;;;;;;;;;;
2021/07/12 10:17:22;;;;;;;6.03;5.53;;;;;;;24.50;69.21;98637.63;262591;1089;22809;-77
2021/07/12 10:37:43;;;;;;;5.60;4.87;;;;;;;25.06;67.31;98610.83;262452;1090;23552;-77
2021/07/12 10:51:41;;;;;;;;;;;;;;;;;;;;;
2021/07/12 10:58:42;;;;;;;;;;;;;;;;;;;;;
2021/07/12 11:11:01;;;;;;;7.50;6.88;;;;;;;26.00;64.49;98564.90;262994;1089;25724;-74
2021/07/12 11:16:56;;;;;;;5.85;5.35;;;;;;;26.19;63.80;98568.38;262949;1089;22856;-74
2021/07/12 11:22:43;;;;;;;5.70;5.20;;;;;;;26.43;62.95;98562.00;262839;1090;25887;-75
2021/07/12 11:28:45;;;;;;;6.07;5.47;;;;;;;26.41;61.59;98561.60;262987;1089;22816;-76
2021/07/12 11:42:39;;;;;;;5.38;4.88;;;;;;;26.47;60.54;98554.52;262310;1089;26246;-75
2021/07/12 11:49:24;;;;;;;5.20;4.70;;;;;;;26.14;60.37;98547.63;262772;1089;22798;-74
2021/07/12 12:02:28;;;;;;;5.78;5.28;;;;;;;25.85;60.44;98544.17;262394;1090;22782;-74
2021/07/12 12:09:17;;;;;;;6.15;5.55;;;;;;;25.81;61.30;98549.66;262950;1089;22856;-74
2021/07/12 12:29:48;;;;;;;;;;;;;;;;;;;;;
2021/07/12 12:35:44;;;;;;;5.28;4.88;;;;;;;26.64;59.07;98516.37;263092;1090;22931;-72
2021/07/12 12:41:12;;;;;;;6.25;5.65;;;;;;;26.63;59.17;98518.31;262919;1088;22828;-72
2021/07/12 12:47:05;;;;;;;6.30;5.53;;;;;;;26.66;58.48;98519.48;262976;1089;22804;-73
2021/07/12 12:53:13;;;;;;;8.00;7.30;;;;;;;26.79;58.44;98508.81;263024;1089;22786;-73
2021/07/12 12:59:32;;;;;;;5.85;5.35;;;;;;;27.08;58.27;98498.37;262873;1088;22860;-71
2021/07/12 13:05:12;;;;;;;7.40;5.83;;;;;;;27.28;57.97;98487.59;262906;1090;22776;-71
2021/07/12 13:10:34;;;;;;;5.83;5.40;;;;;;;27.42;57.45;98485.89;263020;1088;22864;-71
2021/07/12 13:16:14;;;;;;;5.63;5.13;;;;;;;27.43;56.80;98474.48;263000;1090;22960;-71
2021/07/12 13:21:57;;;;;;;6.08;5.48;;;;;;;27.35;57.03;98469.45;262567;1089;22779;-71
2021/07/12 13:27:35;;;;;;;5.90;5.50;;;;;;;27.33;57.02;98461.61;262933;1090;22803;-72
2021/07/12 13:33:19;;;;;;;7.10;6.50;;;;;;;27.36;56.25;98462.80;263018;1090;24468;-72
2021/07/12 13:38:56;;;;;;;7.85;5.28;;;;;;;27.35;56.32;98462.00;263168;1089;25848;-71
2021/07/12 13:44:12;;;;;;;6.43;5.93;;;;;;;27.46;56.51;98459.14;262960;1089;24323;-71
2021/07/12 13:50:18;;;;;;;6.03;5.45;;;;;;;27.51;55.68;98458.70;262980;1089;22791;-72
2021/07/12 13:55:34;;;;;;;5.95;5.43;;;;;;;27.17;55.51;98448.43;263026;1089;22776;-72
2021/07/12 14:00:41;;;;;;;5.90;5.40;;;;;;;26.94;55.30;98446.28;263758;1089;22823;-72
2021/07/12 14:06:06;;;;;;;6.10;5.60;;;;;;;27.11;56.07;98434.35;269981;1090;22652;-72
2021/07/12 14:11:26;;;;;;;6.25;5.65;;;;;;;27.75;56.10;98431.30;264873;1089;26031;-73
2021/07/12 14:17:05;;;;;;;6.40;5.80;;;;;;;27.88;54.68;98428.77;263534;1089;27057;-72
2021/07/12 14:22:25;;;;;;;5.98;5.48;;;;;;;27.64;54.24;98423.94;263172;1088;22849;-72
2021/07/12 14:27:49;;;;;;;;;;;;;;;;;;;;;
2021/07/12 14:33:17;;;;;;;6.08;5.53;;;;;;;26.95;54.94;98431.36;263112;1090;22775;-72
2021/07/12 14:38:36;;;;;;;7.13;6.25;;;;;;;26.72;55.99;98437.45;262806;1090;22864;-72
2021/07/12 14:43:59;;;;;;;6.70;6.10;;;;;;;26.53;55.94;98430.52;262955;1088;22782;-73
2021/07/12 14:49:15;;;;;;;6.60;6.00;;;;;;;26.41;56.23;98415.30;262977;1090;22824;-72
2021/07/12 14:55:15;;;;;;;7.20;6.60;;;;;;;26.22;56.56;98419.34;262903;1088;22752;-73
2021/07/12 15:01:06;;;;;;;7.05;6.45;;;;;;;25.98;57.08;98419.09;262865;1090;22870;-72
2021/07/12 15:07:17;;;;;;;;;;;;;;;;;;;;;
2021/07/12 15:12:48;;;;;;;;;;;;;;;;;;;;;
2021/07/12 15:25:53;;;;;;;8.17;6.07;;;;;;;26.87;56.18;98372.93;262889;1089;22852;-74
2021/07/12 15:32:21;;;;;;;6.00;5.20;;;;;;;26.88;55.74;98359.98;262780;1090;25862;-74
2021/07/12 15:38:27;;;;;;;;;;;;;;;;;;;;;
2021/07/12 15:51:45;;;;;;;;;;;;;;;;;;;;;
2021/07/12 15:58:10;;;;;;;;;;;;;;;;;;;;;
2021/07/12 16:03:44;;;;;;;7.28;5.50;;;;;;;26.38;54.88;98366.69;262738;1090;25868;-74
2021/07/12 16:09:37;;;;;;;5.90;5.40;;;;;;;26.28;54.55;98368.33;262962;1090;22831;-73
2021/07/12 16:15:23;;;;;;;6.07;5.57;;;;;;;26.12;55.43;98374.31;263142;1089;22975;-72
2021/07/12 16:20:47;;;;;;;6.43;5.80;;;;;;;26.12;55.32;98366.08;262816;1088;22776;-73
2021/07/12 16:26:24;;;;;;;5.73;5.17;;;;;;;25.98;55.05;98371.64;262807;1090;22834;-72
2021/07/12 16:31:57;;;;;;;5.35;4.88;;;;;;;25.88;54.84;98381.50;262769;1089;22791;-73
2021/07/12 16:37:39;;;;;;;4.80;4.30;;;;;;;25.81;54.41;98376.06;262789;1090;22776;-73
2021/07/12 16:43:13;;;;;;;4.93;4.50;;;;;;;25.81;54.10;98373.31;262779;1090;25852;-73
2021/07/12 16:49:44;;;;;;;;;;;;;;;;;;;;;
2021/07/12 16:55:05;;;;;;;3.88;3.50;;;;;;;25.72;52.20;98373.77;262756;1090;25986;-72
2021/07/12 17:00:23;;;;;;;3.90;3.53;;;;;;;25.60;52.57;98374.98;262762;1090;22877;-74
2021/07/12 17:05:51;;;;;;;3.85;3.50;;;;;;;25.41;52.79;98370.78;262870;1088;26279;-74
2021/07/12 17:11:36;;;;;;;4.30;3.83;;;;;;;25.35;53.72;98366.87;262515;1090;26407;-73
2021/07/12 17:17:52;;;;;;;4.55;4.15;;;;;;;25.71;54.20;98361.99;262720;1089;25874;-73
2021/07/12 17:23:23;;;;;;;3.50;3.20;;;;;;;26.82;52.78;98351.41;262977;1089;22813;-73
2021/07/12 17:29:03;;;;;;;;;;;;;;;;;;;;;
2021/07/12 17:34:28;;;;;;;4.45;3.95;;;;;;;28.41;50.68;98343.83;262740;1090;27570;-73
2021/07/12 17:39:56;;;;;;;4.70;4.30;;;;;;;28.71;48.96;98353.17;262758;1090;22860;-74
2021/07/12 17:46:12;;;;;;;;;;;;;;;;;;;;;
2021/07/12 17:52:15;;;;;;;;;;;;;;;;;;;;;
2021/07/12 17:58:19;;;;;;;4.13;3.83;;;;;;;25.25;50.94;98333.61;262844;1090;27082;-73
2021/07/12 18:04:11;;;;;;;;;;;;;;;;;;;;;
2021/07/12 18:09:29;;;;;;;4.85;4.38;;;;;;;23.50;54.56;98348.84;262846;1090;22806;-74
2021/07/12 18:21:34;;;;;;;;;;;;;;;;;;;;;
2021/07/12 18:27:45;;;;;;;4.23;3.93;;;;;;;21.93;58.75;98353.59;262897;1089;22884;-72
2021/07/12 18:33:47;;;;;;;;;;;;;;;;;;;;;
2021/07/12 18:40:45;;;;;;;4.40;4.00;;;;;;;21.18;60.91;98372.56;262742;1090;22783;-74
2021/07/12 18:59:47;;;;;;;5.70;4.20;;;;;;;20.46;63.50;98407.64;262872;1090;25871;-74
2021/07/12 19:05:44;;;;;;;;;;;;;;;;;;;;;
2021/07/12 19:12:19;;;;;;;;;;;;;;;;;;;;;
2021/07/12 19:18:38;;;;;;;3.78;3.43;;;;;;;19.79;65.75;98408.77;262785;1089;22782;-72
2021/07/12 19:24:21;;;;;;;4.73;4.30;;;;;;;19.69;66.36;98405.83;262833;1089;24297;-72
2021/07/12 19:30:14;;;;;;;6.27;3.80;;;;;;;19.60;66.69;98397.88;262804;1088;23527;-73
2021/07/12 19:35:59;;;;;;;4.10;3.70;;;;;;;19.48;67.17;98393.38;262858;1090;22787;-74
2021/07/12 19:42:02;;;;;;;4.05;3.60;;;;;;;19.44;67.60;98390.58;262733;1089;26322;-74
2021/07/12 19:47:33;;;;;;;3.83;3.43;;;;;;;19.40;67.92;98391.66;262815;1090;22937;-74
2021/07/12 19:53:33;;;;;;;2.93;2.63;;;;;;;19.35;68.58;98397.37;262794;1090;22776;-73
2021/07/12 19:59:19;;;;;;;;;;;;;;;;;;;;;
2021/07/12 20:05:59;;;;;;;4.00;3.70;;;;;;;19.21;69.71;98368.78;262409;1089;22828;-74
2021/07/12 20:11:33;;;;;;;;;;;;;;;;;;;;;
2021/07/12 20:17:58;;;;;;;4.63;4.20;;;;;;;19.04;70.51;98375.41;262770;1088;22779;-74
2021/07/12 20:23:53;;;;;;;4.60;3.87;;;;;;;19.05;70.93;98370.75;262752;1090;22865;-72
2021/07/12 20:29:18;;;;;;;4.75;4.25;;;;;;;19.00;71.20;98358.25;262760;1088;26245;-73
2021/07/12 20:35:29;;;;;;;3.85;3.45;;;;;;;18.92;71.37;98351.88;262739;1089;23366;-73
2021/07/12 20:42:23;;;;;;;4.33;3.93;;;;;;;18.81;71.52;98356.25;262714;1089;24317;-72
2021/07/12 20:48:28;;;;;;;;;;;;;;;;;;;;;
2021/07/12 20:54:12;;;;;;;5.70;3.70;;;;;;;18.59;72.08;98341.40;262811;1089;22878;-74
2021/07/12 21:01:06;;;;;;;5.55;3.90;;;;;;;18.52;72.27;98336.59;262858;1089;26492;-73
2021/07/12 21:06:56;;;;;;;3.30;3.00;;;;;;;18.48;72.58;98333.00;262984;1090;22953;-74
2021/07/12 21:12:51;;;;;;;4.07;3.50;;;;;;;18.41;72.81;98328.22;262711;1090;22806;-73
2021/07/12 21:25:34;;;;;;;3.85;3.50;;;;;;;18.24;73.16;98337.50;262515;1089;22873;-73
2021/07/12 21:32:21;;;;;;;;;;;;;;;;;;;;;
2021/07/12 21:38:46;;;;;;;5.50;4.00;;;;;;;18.10;74.00;98334.42;262750;1090;26043;-74
2021/07/12 21:44:56;;;;;;;;;;;;;;;;;;;;;
2021/07/12 21:51:23;;;;;;;;;;;;;;;;;;;;;
2021/07/12 21:57:12;;;;;;;6.10;4.75;;;;;;;17.79;74.75;98322.39;262531;1090;22776;-73
2021/07/12 22:09:34;;;;;;;6.75;4.85;;;;;;;17.70;76.05;98327.97;262395;1090;23631;-73
2021/07/12 22:29:57;;;;;;;5.30;4.80;;;;;;;17.53;76.51;98337.19;262818;1089;22772;-72
2021/07/12 22:43:02;;;;;;;6.47;5.87;;;;;;;17.44;77.26;98341.95;262288;1090;22875;-72
2021/07/12 22:50:13;;;;;;;5.70;5.10;;;;;;;17.39;77.03;98326.75;262722;1090;22765;-73
2021/07/12 23:04:55;;;;;;;6.97;6.13;;;;;;;17.37;77.81;98322.81;262568;1090;23414;-73
2021/07/12 23:11:10;;;;;;;7.65;6.75;;;;;;;17.31;77.63;98319.56;262340;1088;22800;-72
2021/07/12 23:24:39;;;;;;;7.05;6.10;;;;;;;17.17;78.13;98311.05;262535;1090;21451;-74
2021/07/12 23:31:59;;;;;;;7.10;6.00;;;;;;;17.11;78.32;98315.91;262668;1090;23621;-73
2021/07/12 23:45:52;;;;;;;11.55;7.65;;;;;;;16.99;78.79;98303.19;262222;1089;25868;-74
2021/07/12 23:52:29;;;;;;;9.47;7.50;;;;;;;16.90;79.33;98311.45;262588;1089;26248;-73
